sensor_id;sensor_type;location;lat;lon;timestamp;temperature;humidity
69382;DHT22;56560;50.692;12.844;2022-08-19T00:01:55;19.90;83.90
69382;DHT22;56560;50.692;12.844;2022-08-19T00:04:31;19.80;83.80
69382;DHT22;56560;50.692;12.844;2022-08-19T00:06:58;19.80;84.00
69382;DHT22;56560;50.692;12.844;2022-08-19T00:09:26;19.80;83.90
69382;DHT22;56560;50.692;12.844;2022-08-19T00:11:53;19.80;84.30
69382;DHT22;56560;50.692;12.844;2022-08-19T00:14:21;19.80;84.10
69382;DHT22;56560;50.692;12.844;2022-08-19T00:16:48;19.80;84.30
69382;DHT22;56560;50.692;12.844;2022-08-19T00:19:15;19.80;84.10
69382;DHT22;56560;50.692;12.844;2022-08-19T00:21:41;19.80;84.10
69382;DHT22;56560;50.692;12.844;2022-08-19T00:24:08;19.80;84.30
69382;DHT22;56560;50.692;12.844;2022-08-19T00:26:35;19.80;84.60
69382;DHT22;56560;50.692;12.844;2022-08-19T00:29:01;19.80;84.40
69382;DHT22;56560;50.692;12.844;2022-08-19T00:31:27;19.80;84.50
69382;DHT22;56560;50.692;12.844;2022-08-19T00:33:53;19.80;84.60
69382;DHT22;56560;50.692;12.844;2022-08-19T00:36:20;19.80;84.70
69382;DHT22;56560;50.692;12.844;2022-08-19T00:38:46;19.80;84.90
69382;DHT22;56560;50.692;12.844;2022-08-19T00:41:16;19.80;84.60
69382;DHT22;56560;50.692;12.844;2022-08-19T00:44:00;19.80;84.50
69382;DHT22;56560;50.692;12.844;2022-08-19T00:46:26;19.80;84.50
69382;DHT22;56560;50.692;12.844;2022-08-19T00:48:53;19.80;84.80
69382;DHT22;56560;50.692;12.844;2022-08-19T00:51:19;19.70;85.20
69382;DHT22;56560;50.692;12.844;2022-08-19T00:53:45;19.70;85.00
69382;DHT22;56560;50.692;12.844;2022-08-19T00:56:11;19.80;84.80
69382;DHT22;56560;50.692;12.844;2022-08-19T00:58:37;19.90;84.30
69382;DHT22;56560;50.692;12.844;2022-08-19T01:01:04;19.90;84.40
69382;DHT22;56560;50.692;12.844;2022-08-19T01:03:30;19.90;84.10
69382;DHT22;56560;50.692;12.844;2022-08-19T01:05:56;19.90;84.10
69382;DHT22;56560;50.692;12.844;2022-08-19T01:08:22;19.90;83.90
69382;DHT22;56560;50.692;12.844;2022-08-19T01:10:54;19.90;83.80
69382;DHT22;56560;50.692;12.844;2022-08-19T01:13:24;19.80;84.40
69382;DHT22;56560;50.692;12.844;2022-08-19T01:16:04;19.80;84.40
69382;DHT22;56560;50.692;12.844;2022-08-19T01:18:32;19.80;84.20
69382;DHT22;56560;50.692;12.844;2022-08-19T01:21:05;19.90;84.10
69382;DHT22;56560;50.692;12.844;2022-08-19T01:23:33;19.80;84.40
69382;DHT22;56560;50.692;12.844;2022-08-19T01:26:19;19.90;83.80
69382;DHT22;56560;50.692;12.844;2022-08-19T01:28:48;19.90;83.90
69382;DHT22;56560;50.692;12.844;2022-08-19T01:31:18;20.00;83.80
69382;DHT22;56560;50.692;12.844;2022-08-19T01:33:45;20.00;83.60
69382;DHT22;56560;50.692;12.844;2022-08-19T01:36:26;20.00;83.50
69382;DHT22;56560;50.692;12.844;2022-08-19T01:38:52;20.10;83.20
69382;DHT22;56560;50.692;12.844;2022-08-19T01:41:18;20.00;83.60
69382;DHT22;56560;50.692;12.844;2022-08-19T01:43:44;20.00;83.70
69382;DHT22;56560;50.692;12.844;2022-08-19T01:46:10;20.00;83.70
69382;DHT22;56560;50.692;12.844;2022-08-19T01:48:39;20.00;83.00
69382;DHT22;56560;50.692;12.844;2022-08-19T01:51:06;20.10;83.10
69382;DHT22;56560;50.692;12.844;2022-08-19T01:53:32;20.00;83.50
69382;DHT22;56560;50.692;12.844;2022-08-19T01:55:58;20.00;83.40
69382;DHT22;56560;50.692;12.844;2022-08-19T01:58:31;20.00;83.40
69382;DHT22;56560;50.692;12.844;2022-08-19T02:00:58;20.00;83.70
69382;DHT22;56560;50.692;12.844;2022-08-19T02:03:24;20.10;82.90
69382;DHT22;56560;50.692;12.844;2022-08-19T02:05:55;20.00;83.40
69382;DHT22;56560;50.692;12.844;2022-08-19T02:08:21;20.00;83.20
69382;DHT22;56560;50.692;12.844;2022-08-19T02:10:46;20.00;83.20
69382;DHT22;56560;50.692;12.844;2022-08-19T02:13:13;20.00;83.40
69382;DHT22;56560;50.692;12.844;2022-08-19T02:15:39;20.00;82.90
69382;DHT22;56560;50.692;12.844;2022-08-19T02:18:05;20.00;83.40
69382;DHT22;56560;50.692;12.844;2022-08-19T02:20:31;20.10;83.10
69382;DHT22;56560;50.692;12.844;2022-08-19T02:22:57;20.10;82.40
69382;DHT22;56560;50.692;12.844;2022-08-19T02:25:22;20.10;82.60
69382;DHT22;56560;50.692;12.844;2022-08-19T02:27:48;20.20;82.60
69382;DHT22;56560;50.692;12.844;2022-08-19T02:30:16;20.10;82.70
69382;DHT22;56560;50.692;12.844;2022-08-19T02:32:42;20.10;82.80
69382;DHT22;56560;50.692;12.844;2022-08-19T02:35:09;20.10;82.90
69382;DHT22;56560;50.692;12.844;2022-08-19T02:37:35;20.10;83.10
69382;DHT22;56560;50.692;12.844;2022-08-19T02:40:19;20.10;83.20
69382;DHT22;56560;50.692;12.844;2022-08-19T02:42:45;20.10;82.90
69382;DHT22;56560;50.692;12.844;2022-08-19T02:45:12;20.00;83.10
69382;DHT22;56560;50.692;12.844;2022-08-19T02:47:38;20.10;82.80
69382;DHT22;56560;50.692;12.844;2022-08-19T02:50:05;20.10;82.80
69382;DHT22;56560;50.692;12.844;2022-08-19T02:52:32;20.10;82.70
69382;DHT22;56560;50.692;12.844;2022-08-19T02:54:58;20.10;82.90
69382;DHT22;56560;50.692;12.844;2022-08-19T02:57:25;20.10;82.70
69382;DHT22;56560;50.692;12.844;2022-08-19T02:59:52;20.10;82.60
69382;DHT22;56560;50.692;12.844;2022-08-19T03:02:17;20.20;82.60
69382;DHT22;56560;50.692;12.844;2022-08-19T03:04:43;20.20;82.30
69382;DHT22;56560;50.692;12.844;2022-08-19T03:07:13;20.20;82.30
69382;DHT22;56560;50.692;12.844;2022-08-19T03:09:39;20.20;82.60
69382;DHT22;56560;50.692;12.844;2022-08-19T03:12:05;20.20;82.50
69382;DHT22;56560;50.692;12.844;2022-08-19T03:14:31;20.20;82.70
69382;DHT22;56560;50.692;12.844;2022-08-19T03:16:57;20.20;82.70
69382;DHT22;56560;50.692;12.844;2022-08-19T03:19:24;20.20;82.50
69382;DHT22;56560;50.692;12.844;2022-08-19T03:21:51;20.20;82.40
69382;DHT22;56560;50.692;12.844;2022-08-19T03:24:17;20.20;82.60
69382;DHT22;56560;50.692;12.844;2022-08-19T03:26:47;20.10;82.90
69382;DHT22;56560;50.692;12.844;2022-08-19T03:29:14;20.10;83.40
69382;DHT22;56560;50.692;12.844;2022-08-19T03:31:42;20.00;83.60
69382;DHT22;56560;50.692;12.844;2022-08-19T03:34:09;19.90;83.70
69382;DHT22;56560;50.692;12.844;2022-08-19T03:36:37;19.90;83.90
69382;DHT22;56560;50.692;12.844;2022-08-19T03:39:03;19.90;83.80
69382;DHT22;56560;50.692;12.844;2022-08-19T03:41:32;20.00;84.10
69382;DHT22;56560;50.692;12.844;2022-08-19T03:43:58;20.00;83.80
69382;DHT22;56560;50.692;12.844;2022-08-19T03:46:30;20.00;83.70
69382;DHT22;56560;50.692;12.844;2022-08-19T03:48:58;20.00;83.70
69382;DHT22;56560;50.692;12.844;2022-08-19T03:51:27;20.00;83.70
69382;DHT22;56560;50.692;12.844;2022-08-19T03:53:54;20.00;83.70
69382;DHT22;56560;50.692;12.844;2022-08-19T03:56:20;20.00;83.70
69382;DHT22;56560;50.692;12.844;2022-08-19T03:58:46;20.00;83.70
69382;DHT22;56560;50.692;12.844;2022-08-19T04:01:16;20.00;83.90
69382;DHT22;56560;50.692;12.844;2022-08-19T04:03:44;20.00;83.80
69382;DHT22;56560;50.692;12.844;2022-08-19T04:06:17;20.00;83.90
69382;DHT22;56560;50.692;12.844;2022-08-19T04:08:45;20.00;84.00
69382;DHT22;56560;50.692;12.844;2022-08-19T04:11:16;20.00;84.30
69382;DHT22;56560;50.692;12.844;2022-08-19T04:13:42;20.00;84.50
69382;DHT22;56560;50.692;12.844;2022-08-19T04:16:10;20.00;84.20
69382;DHT22;56560;50.692;12.844;2022-08-19T04:18:37;20.00;84.50
69382;DHT22;56560;50.692;12.844;2022-08-19T04:21:06;20.00;84.60
69382;DHT22;56560;50.692;12.844;2022-08-19T04:23:32;19.90;84.80
69382;DHT22;56560;50.692;12.844;2022-08-19T04:25:58;19.90;85.00
69382;DHT22;56560;50.692;12.844;2022-08-19T04:28:25;19.80;85.40
69382;DHT22;56560;50.692;12.844;2022-08-19T04:30:53;19.80;85.60
69382;DHT22;56560;50.692;12.844;2022-08-19T04:33:24;19.70;85.10
69382;DHT22;56560;50.692;12.844;2022-08-19T04:35:51;19.80;86.00
69382;DHT22;56560;50.692;12.844;2022-08-19T04:38:19;19.70;86.20
69382;DHT22;56560;50.692;12.844;2022-08-19T04:40:47;19.70;86.70
69382;DHT22;56560;50.692;12.844;2022-08-19T04:43:32;19.70;86.60
69382;DHT22;56560;50.692;12.844;2022-08-19T04:46:03;19.70;86.20
69382;DHT22;56560;50.692;12.844;2022-08-19T04:48:29;19.60;86.20
69382;DHT22;56560;50.692;12.844;2022-08-19T04:50:56;19.60;86.40
69382;DHT22;56560;50.692;12.844;2022-08-19T04:53:30;19.70;86.10
69382;DHT22;56560;50.692;12.844;2022-08-19T04:55:57;19.70;86.30
69382;DHT22;56560;50.692;12.844;2022-08-19T04:58:27;19.70;86.20
69382;DHT22;56560;50.692;12.844;2022-08-19T05:00:53;19.70;85.90
69382;DHT22;56560;50.692;12.844;2022-08-19T05:03:20;19.80;85.90
69382;DHT22;56560;50.692;12.844;2022-08-19T05:05:47;19.80;85.60
69382;DHT22;56560;50.692;12.844;2022-08-19T05:08:19;19.90;85.20
69382;DHT22;56560;50.692;12.844;2022-08-19T05:10:56;19.90;85.30
69382;DHT22;56560;50.692;12.844;2022-08-19T05:13:22;19.90;86.00
69382;DHT22;56560;50.692;12.844;2022-08-19T05:15:56;19.90;86.30
69382;DHT22;56560;50.692;12.844;2022-08-19T05:18:22;20.00;85.50
69382;DHT22;56560;50.692;12.844;2022-08-19T05:21:10;20.00;85.70
69382;DHT22;56560;50.692;12.844;2022-08-19T05:23:55;20.10;85.30
69382;DHT22;56560;50.692;12.844;2022-08-19T05:26:20;20.10;84.80
69382;DHT22;56560;50.692;12.844;2022-08-19T05:28:47;20.10;85.20
69382;DHT22;56560;50.692;12.844;2022-08-19T05:31:13;20.10;85.60
69382;DHT22;56560;50.692;12.844;2022-08-19T05:33:39;20.10;85.90
69382;DHT22;56560;50.692;12.844;2022-08-19T05:36:05;20.10;84.70
69382;DHT22;56560;50.692;12.844;2022-08-19T05:38:33;20.10;85.30
69382;DHT22;56560;50.692;12.844;2022-08-19T05:40:59;20.10;85.20
69382;DHT22;56560;50.692;12.844;2022-08-19T05:43:25;20.10;85.30
69382;DHT22;56560;50.692;12.844;2022-08-19T05:45:50;20.10;85.40
69382;DHT22;56560;50.692;12.844;2022-08-19T05:48:16;20.10;85.30
69382;DHT22;56560;50.692;12.844;2022-08-19T05:50:46;20.10;85.40
69382;DHT22;56560;50.692;12.844;2022-08-19T05:53:12;20.20;84.70
69382;DHT22;56560;50.692;12.844;2022-08-19T05:55:38;20.20;84.80
69382;DHT22;56560;50.692;12.844;2022-08-19T05:58:04;20.20;85.20
69382;DHT22;56560;50.692;12.844;2022-08-19T06:00:33;20.20;85.40
69382;DHT22;56560;50.692;12.844;2022-08-19T06:02:59;20.20;85.30
69382;DHT22;56560;50.692;12.844;2022-08-19T06:05:29;20.20;84.70
69382;DHT22;56560;50.692;12.844;2022-08-19T06:07:55;20.30;84.60
69382;DHT22;56560;50.692;12.844;2022-08-19T06:10:21;20.30;84.70
69382;DHT22;56560;50.692;12.844;2022-08-19T06:12:47;20.40;84.10
69382;DHT22;56560;50.692;12.844;2022-08-19T06:15:14;20.40;84.60
69382;DHT22;56560;50.692;12.844;2022-08-19T06:17:40;20.50;84.40
69382;DHT22;56560;50.692;12.844;2022-08-19T06:20:08;20.50;84.00
69382;DHT22;56560;50.692;12.844;2022-08-19T06:22:46;20.60;84.10
69382;DHT22;56560;50.692;12.844;2022-08-19T06:25:13;20.60;83.90
69382;DHT22;56560;50.692;12.844;2022-08-19T06:27:40;20.60;83.80
69382;DHT22;56560;50.692;12.844;2022-08-19T06:30:06;20.50;84.00
69382;DHT22;56560;50.692;12.844;2022-08-19T06:32:32;20.40;84.40
69382;DHT22;56560;50.692;12.844;2022-08-19T06:34:58;20.30;84.70
69382;DHT22;56560;50.692;12.844;2022-08-19T06:37:24;20.30;84.40
69382;DHT22;56560;50.692;12.844;2022-08-19T06:39:50;20.30;84.40
69382;DHT22;56560;50.692;12.844;2022-08-19T06:42:16;20.30;84.80
69382;DHT22;56560;50.692;12.844;2022-08-19T06:44:46;20.30;84.40
69382;DHT22;56560;50.692;12.844;2022-08-19T06:47:16;20.40;83.80
69382;DHT22;56560;50.692;12.844;2022-08-19T06:49:42;20.30;84.20
69382;DHT22;56560;50.692;12.844;2022-08-19T06:52:08;20.20;84.60
69382;DHT22;56560;50.692;12.844;2022-08-19T06:54:37;20.20;84.40
69382;DHT22;56560;50.692;12.844;2022-08-19T06:57:03;20.20;84.30
69382;DHT22;56560;50.692;12.844;2022-08-19T06:59:31;20.30;84.40
69382;DHT22;56560;50.692;12.844;2022-08-19T07:02:00;20.30;84.40
69382;DHT22;56560;50.692;12.844;2022-08-19T07:04:29;20.50;83.80
69382;DHT22;56560;50.692;12.844;2022-08-19T07:07:09;20.50;83.30
69382;DHT22;56560;50.692;12.844;2022-08-19T07:09:41;20.50;83.20
69382;DHT22;56560;50.692;12.844;2022-08-19T07:12:11;20.60;82.90
69382;DHT22;56560;50.692;12.844;2022-08-19T07:14:44;20.60;82.80
69382;DHT22;56560;50.692;12.844;2022-08-19T07:17:12;20.60;83.10
69382;DHT22;56560;50.692;12.844;2022-08-19T07:19:38;20.60;82.50
69382;DHT22;56560;50.692;12.844;2022-08-19T07:22:06;20.60;82.80
69382;DHT22;56560;50.692;12.844;2022-08-19T07:24:33;20.60;83.00
69382;DHT22;56560;50.692;12.844;2022-08-19T07:27:02;20.60;83.10
69382;DHT22;56560;50.692;12.844;2022-08-19T07:29:34;20.50;82.90
69382;DHT22;56560;50.692;12.844;2022-08-19T07:32:01;20.40;83.70
69382;DHT22;56560;50.692;12.844;2022-08-19T07:34:28;20.30;84.60
69382;DHT22;56560;50.692;12.844;2022-08-19T07:36:55;20.30;84.80
69382;DHT22;56560;50.692;12.844;2022-08-19T07:39:30;20.30;84.50
69382;DHT22;56560;50.692;12.844;2022-08-19T07:42:07;20.40;84.70
69382;DHT22;56560;50.692;12.844;2022-08-19T07:44:34;20.50;83.90
69382;DHT22;56560;50.692;12.844;2022-08-19T07:47:00;20.50;84.40
69382;DHT22;56560;50.692;12.844;2022-08-19T07:49:26;20.70;84.10
69382;DHT22;56560;50.692;12.844;2022-08-19T07:52:01;20.80;83.30
69382;DHT22;56560;50.692;12.844;2022-08-19T07:54:29;20.80;83.20
69382;DHT22;56560;50.692;12.844;2022-08-19T07:56:56;20.80;83.30
69382;DHT22;56560;50.692;12.844;2022-08-19T07:59:22;20.80;83.20
69382;DHT22;56560;50.692;12.844;2022-08-19T08:02:16;20.80;83.00
69382;DHT22;56560;50.692;12.844;2022-08-19T08:04:41;20.70;83.60
69382;DHT22;56560;50.692;12.844;2022-08-19T08:07:27;20.70;83.10
69382;DHT22;56560;50.692;12.844;2022-08-19T08:10:11;20.70;83.50
69382;DHT22;56560;50.692;12.844;2022-08-19T08:12:49;20.80;83.10
69382;DHT22;56560;50.692;12.844;2022-08-19T08:15:21;20.80;82.90
69382;DHT22;56560;50.692;12.844;2022-08-19T08:17:47;20.80;82.80
69382;DHT22;56560;50.692;12.844;2022-08-19T08:20:19;20.70;82.80
69382;DHT22;56560;50.692;12.844;2022-08-19T08:22:47;20.50;83.30
69382;DHT22;56560;50.692;12.844;2022-08-19T08:25:31;20.40;84.20
69382;DHT22;56560;50.692;12.844;2022-08-19T08:27:57;20.20;85.40
69382;DHT22;56560;50.692;12.844;2022-08-19T08:30:26;20.20;85.10
69382;DHT22;56560;50.692;12.844;2022-08-19T08:32:53;20.10;85.60
69382;DHT22;56560;50.692;12.844;2022-08-19T08:35:21;20.20;85.70
69382;DHT22;56560;50.692;12.844;2022-08-19T08:37:48;20.20;85.40
69382;DHT22;56560;50.692;12.844;2022-08-19T08:40:50;20.40;85.30
69382;DHT22;56560;50.692;12.844;2022-08-19T08:43:33;20.50;84.80
69382;DHT22;56560;50.692;12.844;2022-08-19T08:48:53;20.70;83.80
69382;DHT22;56560;50.692;12.844;2022-08-19T08:51:32;20.80;83.50
69382;DHT22;56560;50.692;12.844;2022-08-19T08:53:59;20.80;83.10
69382;DHT22;56560;50.692;12.844;2022-08-19T08:56:25;20.90;83.30
69382;DHT22;56560;50.692;12.844;2022-08-19T08:59:21;20.90;83.10
69382;DHT22;56560;50.692;12.844;2022-08-19T09:01:49;21.00;82.90
69382;DHT22;56560;50.692;12.844;2022-08-19T09:04:15;21.00;82.50
69382;DHT22;56560;50.692;12.844;2022-08-19T09:06:59;21.10;82.40
69382;DHT22;56560;50.692;12.844;2022-08-19T09:09:34;21.10;82.70
69382;DHT22;56560;50.692;12.844;2022-08-19T09:12:10;21.00;82.00
69382;DHT22;56560;50.692;12.844;2022-08-19T09:14:46;21.00;82.00
69382;DHT22;56560;50.692;12.844;2022-08-19T09:17:14;21.00;82.70
69382;DHT22;56560;50.692;12.844;2022-08-19T09:19:54;21.10;82.80
69382;DHT22;56560;50.692;12.844;2022-08-19T09:22:20;21.20;81.70
69382;DHT22;56560;50.692;12.844;2022-08-19T09:24:50;21.30;81.60
69382;DHT22;56560;50.692;12.844;2022-08-19T09:27:18;21.30;80.70
69382;DHT22;56560;50.692;12.844;2022-08-19T09:29:44;21.30;80.60
69382;DHT22;56560;50.692;12.844;2022-08-19T09:32:10;21.40;81.00
69382;DHT22;56560;50.692;12.844;2022-08-19T09:34:36;21.40;80.90
69382;DHT22;56560;50.692;12.844;2022-08-19T09:37:01;21.40;80.80
69382;DHT22;56560;50.692;12.844;2022-08-19T09:39:28;21.40;80.80
69382;DHT22;56560;50.692;12.844;2022-08-19T09:42:05;21.50;81.00
69382;DHT22;56560;50.692;12.844;2022-08-19T09:44:34;21.60;80.60
69382;DHT22;56560;50.692;12.844;2022-08-19T09:47:00;21.60;80.40
69382;DHT22;56560;50.692;12.844;2022-08-19T09:49:25;21.70;80.00
69382;DHT22;56560;50.692;12.844;2022-08-19T09:51:52;21.70;80.10
69382;DHT22;56560;50.692;12.844;2022-08-19T09:54:21;21.80;79.30
69382;DHT22;56560;50.692;12.844;2022-08-19T09:56:48;21.80;78.60
69382;DHT22;56560;50.692;12.844;2022-08-19T09:59:14;21.70;79.00
69382;DHT22;56560;50.692;12.844;2022-08-19T10:01:40;21.60;80.00
69382;DHT22;56560;50.692;12.844;2022-08-19T10:04:06;21.50;80.10
69382;DHT22;56560;50.692;12.844;2022-08-19T10:06:37;21.50;80.10
69382;DHT22;56560;50.692;12.844;2022-08-19T10:09:04;21.50;80.10
69382;DHT22;56560;50.692;12.844;2022-08-19T10:11:32;21.40;80.20
69382;DHT22;56560;50.692;12.844;2022-08-19T10:13:59;21.40;80.90
69382;DHT22;56560;50.692;12.844;2022-08-19T10:16:25;21.50;81.20
69382;DHT22;56560;50.692;12.844;2022-08-19T10:18:51;21.90;79.50
69382;DHT22;56560;50.692;12.844;2022-08-19T10:21:20;22.40;78.40
69382;DHT22;56560;50.692;12.844;2022-08-19T10:23:48;23.20;76.50
69382;DHT22;56560;50.692;12.844;2022-08-19T10:26:18;23.90;73.90
69382;DHT22;56560;50.692;12.844;2022-08-19T10:28:44;24.30;71.80
69382;DHT22;56560;50.692;12.844;2022-08-19T10:31:23;24.30;71.40
69382;DHT22;56560;50.692;12.844;2022-08-19T10:33:51;23.90;71.20
69382;DHT22;56560;50.692;12.844;2022-08-19T10:36:24;23.20;72.50
69382;DHT22;56560;50.692;12.844;2022-08-19T10:38:51;22.80;73.20
69382;DHT22;56560;50.692;12.844;2022-08-19T10:41:21;22.40;75.20
69382;DHT22;56560;50.692;12.844;2022-08-19T10:43:59;22.40;76.50
69382;DHT22;56560;50.692;12.844;2022-08-19T10:46:27;22.50;75.30
69382;DHT22;56560;50.692;12.844;2022-08-19T10:48:53;22.60;75.40
69382;DHT22;56560;50.692;12.844;2022-08-19T10:51:21;22.60;75.50
69382;DHT22;56560;50.692;12.844;2022-08-19T10:54:05;22.50;76.00
69382;DHT22;56560;50.692;12.844;2022-08-19T10:56:34;22.40;75.70
69382;DHT22;56560;50.692;12.844;2022-08-19T10:59:29;22.30;76.10
69382;DHT22;56560;50.692;12.844;2022-08-19T11:02:00;22.30;75.80
69382;DHT22;56560;50.692;12.844;2022-08-19T11:04:28;22.30;75.90
69382;DHT22;56560;50.692;12.844;2022-08-19T11:06:53;22.30;76.30
69382;DHT22;56560;50.692;12.844;2022-08-19T11:09:21;22.10;76.70
69382;DHT22;56560;50.692;12.844;2022-08-19T11:11:50;21.80;77.20
69382;DHT22;56560;50.692;12.844;2022-08-19T11:14:19;21.60;78.60
69382;DHT22;56560;50.692;12.844;2022-08-19T11:16:49;21.30;79.50
69382;DHT22;56560;50.692;12.844;2022-08-19T11:19:16;21.10;80.10
69382;DHT22;56560;50.692;12.844;2022-08-19T11:21:47;21.00;81.40
69382;DHT22;56560;50.692;12.844;2022-08-19T11:24:24;21.00;81.00
69382;DHT22;56560;50.692;12.844;2022-08-19T11:26:52;21.00;81.80
69382;DHT22;56560;50.692;12.844;2022-08-19T11:29:22;21.10;80.40
69382;DHT22;56560;50.692;12.844;2022-08-19T11:31:53;21.10;80.80
69382;DHT22;56560;50.692;12.844;2022-08-19T11:34:22;21.10;80.80
69382;DHT22;56560;50.692;12.844;2022-08-19T11:36:49;21.00;81.30
69382;DHT22;56560;50.692;12.844;2022-08-19T11:39:18;21.00;81.30
69382;DHT22;56560;50.692;12.844;2022-08-19T11:41:44;21.00;81.30
69382;DHT22;56560;50.692;12.844;2022-08-19T11:44:10;21.00;81.90
69382;DHT22;56560;50.692;12.844;2022-08-19T11:46:37;20.90;82.10
69382;DHT22;56560;50.692;12.844;2022-08-19T11:49:05;20.90;82.00
69382;DHT22;56560;50.692;12.844;2022-08-19T11:51:33;20.70;82.40
69382;DHT22;56560;50.692;12.844;2022-08-19T11:54:00;20.70;82.90
69382;DHT22;56560;50.692;12.844;2022-08-19T11:56:26;20.70;83.00
69382;DHT22;56560;50.692;12.844;2022-08-19T11:58:53;20.70;83.30
69382;DHT22;56560;50.692;12.844;2022-08-19T12:01:21;20.70;83.00
69382;DHT22;56560;50.692;12.844;2022-08-19T12:03:49;20.70;83.60
69382;DHT22;56560;50.692;12.844;2022-08-19T12:06:18;20.60;82.90
69382;DHT22;56560;50.692;12.844;2022-08-19T12:08:44;20.60;83.00
69382;DHT22;56560;50.692;12.844;2022-08-19T12:11:12;20.50;83.70
69382;DHT22;56560;50.692;12.844;2022-08-19T12:13:39;20.50;83.80
69382;DHT22;56560;50.692;12.844;2022-08-19T12:16:14;20.40;84.10
69382;DHT22;56560;50.692;12.844;2022-08-19T12:18:41;20.40;83.90
69382;DHT22;56560;50.692;12.844;2022-08-19T12:21:09;20.40;84.20
69382;DHT22;56560;50.692;12.844;2022-08-19T12:23:36;20.50;84.10
69382;DHT22;56560;50.692;12.844;2022-08-19T12:26:03;20.50;83.60
69382;DHT22;56560;50.692;12.844;2022-08-19T12:28:30;20.50;83.80
69382;DHT22;56560;50.692;12.844;2022-08-19T12:30:56;20.50;83.00
69382;DHT22;56560;50.692;12.844;2022-08-19T12:33:22;20.40;83.60
69382;DHT22;56560;50.692;12.844;2022-08-19T12:35:51;20.40;83.50
69382;DHT22;56560;50.692;12.844;2022-08-19T12:38:17;20.40;83.40
69382;DHT22;56560;50.692;12.844;2022-08-19T12:40:48;20.40;83.60
69382;DHT22;56560;50.692;12.844;2022-08-19T12:43:15;20.30;83.70
69382;DHT22;56560;50.692;12.844;2022-08-19T12:45:44;20.30;84.00
69382;DHT22;56560;50.692;12.844;2022-08-19T12:48:10;20.30;84.00
69382;DHT22;56560;50.692;12.844;2022-08-19T12:50:36;20.30;83.20
69382;DHT22;56560;50.692;12.844;2022-08-19T12:53:04;20.20;83.70
69382;DHT22;56560;50.692;12.844;2022-08-19T12:55:30;20.20;83.60
69382;DHT22;56560;50.692;12.844;2022-08-19T12:57:55;20.20;83.90
69382;DHT22;56560;50.692;12.844;2022-08-19T13:00:22;20.20;83.60
69382;DHT22;56560;50.692;12.844;2022-08-19T13:02:50;20.10;83.40
69382;DHT22;56560;50.692;12.844;2022-08-19T13:05:22;20.00;83.40
69382;DHT22;56560;50.692;12.844;2022-08-19T13:07:50;20.00;83.90
69382;DHT22;56560;50.692;12.844;2022-08-19T13:10:19;20.00;84.30
69382;DHT22;56560;50.692;12.844;2022-08-19T13:12:47;20.10;84.40
69382;DHT22;56560;50.692;12.844;2022-08-19T13:15:14;20.10;84.30
69382;DHT22;56560;50.692;12.844;2022-08-19T13:17:40;20.10;83.90
69382;DHT22;56560;50.692;12.844;2022-08-19T13:20:10;20.20;83.40
69382;DHT22;56560;50.692;12.844;2022-08-19T13:22:37;20.30;82.80
69382;DHT22;56560;50.692;12.844;2022-08-19T13:25:04;20.30;82.90
69382;DHT22;56560;50.692;12.844;2022-08-19T13:27:31;20.40;83.10
69382;DHT22;56560;50.692;12.844;2022-08-19T13:29:56;20.40;82.50
69382;DHT22;56560;50.692;12.844;2022-08-19T13:32:41;20.40;82.80
69382;DHT22;56560;50.692;12.844;2022-08-19T13:35:25;20.40;81.80
69382;DHT22;56560;50.692;12.844;2022-08-19T13:37:51;20.40;81.70
69382;DHT22;56560;50.692;12.844;2022-08-19T13:40:20;20.30;82.10
69382;DHT22;56560;50.692;12.844;2022-08-19T13:42:50;20.40;82.10
69382;DHT22;56560;50.692;12.844;2022-08-19T13:45:18;20.40;82.10
69382;DHT22;56560;50.692;12.844;2022-08-19T13:47:49;20.40;81.50
69382;DHT22;56560;50.692;12.844;2022-08-19T13:50:18;20.40;81.80
69382;DHT22;56560;50.692;12.844;2022-08-19T13:52:44;20.50;81.40
69382;DHT22;56560;50.692;12.844;2022-08-19T13:55:12;20.50;81.30
69382;DHT22;56560;50.692;12.844;2022-08-19T13:57:38;20.70;81.10
69382;DHT22;56560;50.692;12.844;2022-08-19T14:00:05;20.80;81.20
69382;DHT22;56560;50.692;12.844;2022-08-19T14:02:33;20.80;80.30
69382;DHT22;56560;50.692;12.844;2022-08-19T14:04:58;20.90;80.60
69382;DHT22;56560;50.692;12.844;2022-08-19T14:07:24;20.90;79.80
69382;DHT22;56560;50.692;12.844;2022-08-19T14:09:50;20.90;80.10
69382;DHT22;56560;50.692;12.844;2022-08-19T14:12:22;20.80;79.70
69382;DHT22;56560;50.692;12.844;2022-08-19T14:14:48;20.70;80.00
69382;DHT22;56560;50.692;12.844;2022-08-19T14:17:14;20.80;80.10
69382;DHT22;56560;50.692;12.844;2022-08-19T14:19:41;20.80;79.60
69382;DHT22;56560;50.692;12.844;2022-08-19T14:22:07;20.70;79.80
69382;DHT22;56560;50.692;12.844;2022-08-19T14:24:33;20.70;79.90
69382;DHT22;56560;50.692;12.844;2022-08-19T14:26:59;20.70;79.80
69382;DHT22;56560;50.692;12.844;2022-08-19T14:29:25;20.70;79.60
69382;DHT22;56560;50.692;12.844;2022-08-19T14:31:52;20.60;79.90
69382;DHT22;56560;50.692;12.844;2022-08-19T14:34:17;20.60;79.40
69382;DHT22;56560;50.692;12.844;2022-08-19T14:36:43;20.60;79.60
69382;DHT22;56560;50.692;12.844;2022-08-19T14:39:10;20.60;79.70
69382;DHT22;56560;50.692;12.844;2022-08-19T14:41:40;20.70;79.60
69382;DHT22;56560;50.692;12.844;2022-08-19T14:44:05;20.80;79.30
69382;DHT22;56560;50.692;12.844;2022-08-19T14:46:31;20.80;79.10
69382;DHT22;56560;50.692;12.844;2022-08-19T14:48:57;20.80;79.00
69382;DHT22;56560;50.692;12.844;2022-08-19T14:51:24;20.90;79.20
69382;DHT22;56560;50.692;12.844;2022-08-19T14:53:52;20.90;78.80
69382;DHT22;56560;50.692;12.844;2022-08-19T14:56:22;20.80;78.40
69382;DHT22;56560;50.692;12.844;2022-08-19T14:58:49;20.80;79.00
69382;DHT22;56560;50.692;12.844;2022-08-19T15:01:19;20.70;78.40
69382;DHT22;56560;50.692;12.844;2022-08-19T15:03:48;20.80;78.70
69382;DHT22;56560;50.692;12.844;2022-08-19T15:06:15;20.80;77.80
69382;DHT22;56560;50.692;12.844;2022-08-19T15:08:41;20.90;77.90
69382;DHT22;56560;50.692;12.844;2022-08-19T15:11:14;21.00;78.10
69382;DHT22;56560;50.692;12.844;2022-08-19T15:13:41;21.00;78.80
69382;DHT22;56560;50.692;12.844;2022-08-19T15:16:07;21.10;78.60
69382;DHT22;56560;50.692;12.844;2022-08-19T15:18:33;21.10;78.20
69382;DHT22;56560;50.692;12.844;2022-08-19T15:21:00;21.10;78.00
69382;DHT22;56560;50.692;12.844;2022-08-19T15:23:27;21.00;78.70
69382;DHT22;56560;50.692;12.844;2022-08-19T15:25:53;21.00;77.90
69382;DHT22;56560;50.692;12.844;2022-08-19T15:28:21;20.90;78.60